Time;durP1;ratioP1;P1;durP2;ratioP2;P2;SDS_P1;SDS_P2;PMS_P1;PMS_P2;Temp;Humidity;BMP_temperature;BMP_pressure;BME280_temperature;BME280_humidity;BME280_pressure;Samples;Min_cycle;Max_cycle;Signal;HPM_P1;HPM_P2
2023/11/09 00:00:29;;;;;;;3.63;2.90;;;;;;;1.88;100.00;99424.81;5063179;28;20215;-80
2023/11/09 00:02:57;;;;;;;3.40;2.50;;;;;;;1.84;100.00;99431.41;5069651;28;20767;-79
2023/11/09 00:05:24;;;;;;;3.80;2.40;;;;;;;1.83;100.00;99421.84;5088908;28;20282;-82
2023/11/09 00:07:52;;;;;;;4.03;2.47;;;;;;;1.78;100.00;99412.59;5082737;28;20291;-80
2023/11/09 00:10:22;;;;;;;3.40;2.30;;;;;;;1.76;100.00;99411.97;5075643;28;20258;-80
2023/11/09 00:12:51;;;;;;;3.07;2.30;;;;;;;1.75;100.00;99410.31;5084530;28;20188;-78
2023/11/09 00:15:22;;;;;;;2.80;2.30;;;;;;;1.71;100.00;99408.19;5078070;28;20207;-79
2023/11/09 00:17:52;;;;;;;2.97;2.57;;;;;;;1.70;100.00;99403.88;5077580;28;20238;-79
2023/11/09 00:20:26;;;;;;;2.57;2.10;;;;;;;1.64;100.00;99400.09;5084647;28;20205;-80
2023/11/09 00:22:56;;;;;;;3.40;2.50;;;;;;;1.57;100.00;99401.78;5078563;28;20295;-79
2023/11/09 00:25:23;;;;;;;4.13;2.40;;;;;;;1.51;100.00;99396.31;5075940;28;20649;-79
2023/11/09 00:27:51;;;;;;;3.10;2.10;;;;;;;1.44;100.00;99390.91;5080034;28;20220;-80
2023/11/09 00:30:19;;;;;;;3.50;2.43;;;;;;;1.43;100.00;99391.06;5072694;28;20734;-79
2023/11/09 00:32:49;;;;;;;3.80;2.17;;;;;;;1.42;100.00;99394.69;5083644;28;20249;-80
2023/11/09 00:35:20;;;;;;;3.90;2.30;;;;;;;1.49;100.00;99393.88;5083745;28;20660;-79
2023/11/09 00:37:50;;;;;;;2.67;1.77;;;;;;;1.49;100.00;99388.59;5081306;28;20703;-79
2023/11/09 00:40:19;;;;;;;3.40;2.03;;;;;;;1.60;100.00;99384.75;5083905;28;20246;-80
2023/11/09 00:42:50;;;;;;;2.93;2.20;;;;;;;1.56;100.00;99379.00;5074741;28;20299;-80
2023/11/09 00:45:18;;;;;;;2.20;1.80;;;;;;;1.60;100.00;99372.38;5083086;28;20475;-79
2023/11/09 00:47:48;;;;;;;2.77;1.90;;;;;;;1.61;100.00;99368.75;5082360;28;20701;-79
2023/11/09 00:50:20;;;;;;;2.20;1.90;;;;;;;1.64;100.00;99372.84;5087616;28;20188;-80
2023/11/09 00:52:50;;;;;;;2.67;2.10;;;;;;;1.64;100.00;99368.41;5086099;28;20189;-82
2023/11/09 00:55:21;;;;;;;2.40;1.90;;;;;;;1.66;100.00;99370.88;5073130;28;20684;-80
2023/11/09 00:57:50;;;;;;;2.90;2.00;;;;;;;1.67;100.00;99370.72;5076120;28;20299;-80
2023/11/09 01:00:18;;;;;;;2.80;1.93;;;;;;;1.66;100.00;99373.53;5071228;28;20197;-80
2023/11/09 01:02:51;;;;;;;3.17;2.10;;;;;;;1.65;100.00;99370.06;5082024;28;20228;-79
2023/11/09 01:05:21;;;;;;;2.27;1.80;;;;;;;1.62;100.00;99366.94;5073315;28;20200;-80
2023/11/09 01:07:53;;;;;;;2.40;1.90;;;;;;;1.59;100.00;99364.63;5083910;28;20640;-79
2023/11/09 01:10:21;;;;;;;2.83;1.80;;;;;;;1.62;100.00;99367.75;5080227;28;20197;-78
2023/11/09 01:12:49;;;;;;;2.50;1.83;;;;;;;1.63;100.00;99365.94;5078963;28;20698;-80
2023/11/09 01:15:17;;;;;;;2.73;1.60;;;;;;;1.65;100.00;99363.94;5079846;28;20200;-79
2023/11/09 01:18:08;;;;;;;1.90;1.70;;;;;;;1.61;100.00;99357.34;5070325;28;20209;-81
2023/11/09 01:20:40;;;;;;;2.27;1.80;;;;;;;1.62;100.00;99359.84;5073803;28;20250;-80
2023/11/09 01:23:09;;;;;;;2.90;1.73;;;;;;;1.64;100.00;99362.28;5072321;28;20280;-80
2023/11/09 01:25:40;;;;;;;2.67;1.77;;;;;;;1.59;100.00;99357.50;5091889;28;20192;-80
2023/11/09 01:28:13;;;;;;;2.93;1.70;;;;;;;1.58;100.00;99357.72;5080720;28;20185;-81
2023/11/09 01:30:47;;;;;;;1.90;1.53;;;;;;;1.52;100.00;99350.44;5075775;28;20284;-82
2023/11/09 01:33:15;;;;;;;3.30;1.70;;;;;;;1.44;100.00;99343.38;5074941;28;20203;-80
2023/11/09 01:35:46;;;;;;;2.47;1.50;;;;;;;1.41;100.00;99335.78;5076637;28;20197;-80
2023/11/09 01:38:16;;;;;;;2.70;1.80;;;;;;;1.34;100.00;99334.81;5083826;28;20245;-81
2023/11/09 01:40:57;;;;;;;3.00;1.60;;;;;;;1.27;100.00;99333.81;5087209;28;20293;-80
2023/11/09 01:43:25;;;;;;;2.77;1.73;;;;;;;1.19;100.00;99331.22;5087120;28;20199;-79
2023/11/09 01:45:58;;;;;;;2.93;1.77;;;;;;;1.11;100.00;99329.41;5087583;28;20207;-78
2023/11/09 01:48:29;;;;;;;1.80;1.50;;;;;;;1.03;100.00;99315.38;5083539;28;20291;-80
2023/11/09 01:50:59;;;;;;;2.63;1.67;;;;;;;0.96;100.00;99306.50;5083639;28;20192;-80
2023/11/09 01:53:33;;;;;;;2.70;1.70;;;;;;;0.88;100.00;99304.69;5072325;28;20208;-79
2023/11/09 01:56:03;;;;;;;2.37;1.63;;;;;;;0.73;100.00;99309.81;5075249;28;20275;-80
2023/11/09 01:58:31;;;;;;;2.20;1.80;;;;;;;0.65;100.00;99303.72;5080541;28;20193;-80
2023/11/09 02:01:00;;;;;;;2.67;1.93;;;;;;;0.54;100.00;99304.03;5082312;28;20216;-80
2023/11/09 02:03:28;;;;;;;3.07;1.90;;;;;;;0.48;100.00;99302.84;5061730;28;20228;-80
2023/11/09 02:06:00;;;;;;;5.10;2.07;;;;;;;0.45;100.00;99295.28;5073727;28;20290;-79
2023/11/09 02:08:29;;;;;;;3.17;1.80;;;;;;;0.41;100.00;99294.78;5062109;28;20211;-79
2023/11/09 02:11:00;;;;;;;2.60;1.70;;;;;;;0.36;100.00;99297.09;5060684;28;20201;-78
2023/11/09 02:13:28;;;;;;;3.20;1.67;;;;;;;0.34;100.00;99298.22;5088658;28;20197;-80
2023/11/09 02:16:13;;;;;;;2.40;1.87;;;;;;;0.26;100.00;99290.31;5083069;28;20290;-80
2023/11/09 02:18:42;;;;;;;3.87;1.83;;;;;;;0.20;100.00;99281.25;5075090;28;20283;-78
2023/11/09 02:21:14;;;;;;;2.90;1.87;;;;;;;0.18;100.00;99280.59;5074830;28;20209;-79
2023/11/09 02:23:43;;;;;;;2.27;1.73;;;;;;;0.12;100.00;99275.97;5062673;28;20225;-80
2023/11/09 02:26:12;;;;;;;2.20;1.80;;;;;;;0.10;100.00;99280.56;5066561;28;20196;-80
2023/11/09 02:28:40;;;;;;;2.47;2.00;;;;;;;0.07;100.00;99269.53;5075128;28;20205;-81
2023/11/09 02:31:10;;;;;;;2.70;2.10;;;;;;;0.06;100.00;99270.50;5082439;28;20193;-81
2023/11/09 02:33:39;;;;;;;2.43;1.90;;;;;;;0.02;100.00;99267.38;5080218;28;20193;-79
2023/11/09 02:36:09;;;;;;;3.20;2.03;;;;;;;0.00;100.00;99285.97;5082836;28;20188;-80
2023/11/09 02:38:41;;;;;;;2.00;1.80;;;;;;;-0.01;100.00;99280.88;5081605;28;20212;-79
2023/11/09 02:41:08;;;;;;;2.73;2.07;;;;;;;-0.05;100.00;99277.72;5072558;28;20259;-79
2023/11/09 02:43:40;;;;;;;2.50;1.90;;;;;;;-0.07;100.00;99282.34;5082066;28;20193;-78
2023/11/09 02:46:10;;;;;;;2.07;1.83;;;;;;;-0.10;100.00;99282.66;5058202;28;20291;-80
2023/11/09 02:48:40;;;;;;;3.93;2.50;;;;;;;-0.15;100.00;99278.84;5079761;28;20215;-80
2023/11/09 02:51:12;;;;;;;2.60;2.37;;;;;;;-0.19;100.00;99275.72;5074340;28;20216;-80
2023/11/09 02:53:40;;;;;;;3.30;2.30;;;;;;;-0.23;100.00;99279.63;5076923;28;20219;-83
2023/11/09 02:56:13;;;;;;;3.03;2.40;;;;;;;-0.24;100.00;99279.81;5060988;28;20215;-79
2023/11/09 02:58:45;;;;;;;3.60;2.70;;;;;;;-0.28;100.00;99275.84;5078247;28;20193;-82
2023/11/09 03:01:19;;;;;;;3.37;2.63;;;;;;;-0.32;100.00;99271.88;5073231;28;20203;-78
2023/11/09 03:03:54;;;;;;;4.10;2.60;;;;;;;-0.35;100.00;99267.75;5082018;28;20275;-81
2023/11/09 03:06:27;;;;;;;3.93;2.10;;;;;;;-0.35;100.00;99264.31;5079259;28;20209;-81
2023/11/09 03:08:56;;;;;;;5.43;2.43;;;;;;;-0.41;100.00;99257.03;5075210;28;20193;-81
2023/11/09 03:11:28;;;;;;;3.97;2.27;;;;;;;-0.42;100.00;99260.66;5072438;28;20224;-81
2023/11/09 03:13:58;;;;;;;2.50;2.30;;;;;;;-0.46;100.00;99260.13;5077558;28;20679;-79
2023/11/09 03:16:28;;;;;;;2.77;1.90;;;;;;;-0.53;100.00;99259.13;5079109;28;20195;-79
2023/11/09 03:19:00;;;;;;;2.40;1.80;;;;;;;-0.56;100.00;99267.34;5081716;28;20192;-80
2023/11/09 03:21:29;;;;;;;3.70;2.60;;;;;;;-0.59;100.00;99272.91;5059800;28;20230;-80
2023/11/09 03:24:00;;;;;;;2.67;2.10;;;;;;;-0.66;100.00;99262.22;5073235;28;20196;-80
2023/11/09 03:26:29;;;;;;;2.70;1.90;;;;;;;-0.69;100.00;99256.41;5064759;28;20192;-79
2023/11/09 03:29:02;;;;;;;4.07;2.33;;;;;;;-0.71;100.00;99248.69;5087047;28;20211;-80
2023/11/09 03:31:35;;;;;;;2.87;2.20;;;;;;;-0.67;100.00;99236.88;5084737;28;20220;-81
2023/11/09 03:34:04;;;;;;;3.20;2.47;;;;;;;-0.63;100.00;99237.38;5087488;28;20208;-80
2023/11/09 03:36:37;;;;;;;5.60;2.40;;;;;;;-0.63;100.00;99232.13;5075217;28;20336;-80
2023/11/09 03:39:07;;;;;;;3.33;2.73;;;;;;;-0.60;100.00;99231.78;5091345;28;20210;-82
2023/11/09 03:41:38;;;;;;;3.57;2.63;;;;;;;-0.65;100.00;99229.63;5083818;28;20244;-82
2023/11/09 03:44:06;;;;;;;3.53;2.80;;;;;;;-0.65;100.00;99237.53;5071893;28;20189;-80
2023/11/09 03:46:35;;;;;;;3.03;2.67;;;;;;;-0.66;100.00;99235.06;5089473;28;20717;-80
2023/11/09 03:49:12;;;;;;;3.70;2.60;;;;;;;-0.68;100.00;99237.03;5073401;28;20217;-79
2023/11/09 03:51:41;;;;;;;3.67;2.70;;;;;;;-0.69;100.00;99240.63;5079387;28;20680;-79
2023/11/09 03:54:09;;;;;;;3.80;2.50;;;;;;;-0.72;100.00;99230.44;5080043;28;20191;-80
2023/11/09 03:56:38;;;;;;;4.10;2.70;;;;;;;-0.75;100.00;99233.38;5080140;28;20188;-79
2023/11/09 03:59:05;;;;;;;4.67;3.03;;;;;;;-0.83;100.00;99221.00;5076380;28;20187;-80
2023/11/09 04:01:38;;;;;;;3.03;2.67;;;;;;;-0.85;100.00;99220.34;5078311;28;20192;-80
2023/11/09 04:04:09;;;;;;;2.53;2.23;;;;;;;-0.85;100.00;99220.34;5083844;28;20195;-78
2023/11/09 04:06:38;;;;;;;3.97;2.17;;;;;;;-0.88;100.00;99224.09;5077022;28;20744;-80
2023/11/09 04:09:09;;;;;;;2.73;2.53;;;;;;;-0.90;100.00;99223.44;5077456;28;20192;-79
2023/11/09 04:11:36;;;;;;;3.27;2.37;;;;;;;-0.94;100.00;99222.13;5091021;28;20192;-80
2023/11/09 04:14:04;;;;;;;2.50;2.30;;;;;;;-0.95;100.00;99219.63;5088116;28;20192;-80
2023/11/09 04:16:34;;;;;;;3.00;2.30;;;;;;;-1.02;100.00;99222.06;5086458;28;20210;-80
2023/11/09 04:19:07;;;;;;;4.33;2.37;;;;;;;-1.04;100.00;99212.69;5077270;28;20205;-78
2023/11/09 04:21:37;;;;;;;2.53;2.20;;;;;;;-1.13;100.00;99209.19;5072490;28;20205;-80
2023/11/09 04:24:07;;;;;;;2.50;2.20;;;;;;;-1.18;100.00;99208.00;5079299;28;20193;-80
2023/11/09 04:26:38;;;;;;;3.17;2.20;;;;;;;-1.20;100.00;99202.06;5073460;28;20209;-80
2023/11/09 04:29:11;;;;;;;4.40;2.20;;;;;;;-1.19;100.00;99203.72;5076656;28;20657;-79
2023/11/09 04:31:42;;;;;;;3.55;2.45;;;;;;;-1.22;100.00;99198.78;5074732;28;20428;-80
2023/11/09 04:34:10;;;;;;;3.40;2.13;;;;;;;-1.26;100.00;99187.72;5074624;28;20192;-79
2023/11/09 04:36:49;;;;;;;2.80;2.20;;;;;;;-1.29;100.00;99195.94;5076602;28;20197;-80
2023/11/09 04:39:31;;;;;;;2.93;1.87;;;;;;;-1.33;100.00;99189.34;5084518;28;20608;-80
2023/11/09 04:42:00;;;;;;;2.40;2.00;;;;;;;-1.36;100.00;99195.75;5074184;28;20286;-80
2023/11/09 04:44:29;;;;;;;2.77;2.23;;;;;;;-1.36;100.00;99197.53;5060364;28;20188;-80
2023/11/09 04:46:57;;;;;;;3.47;2.40;;;;;;;-1.41;100.00;99191.94;5079072;28;20799;-84
2023/11/09 04:49:28;;;;;;;3.90;2.00;;;;;;;-1.39;100.00;99187.31;5083817;28;20261;-80
2023/11/09 04:52:04;;;;;;;3.00;2.10;;;;;;;-1.42;100.00;99187.63;5088139;28;20203;-79
2023/11/09 04:54:45;;;;;;;2.60;2.17;;;;;;;-1.47;100.00;99180.22;5086700;28;20219;-79
2023/11/09 05:08:28;;;;;;;3.37;2.27;;;;;;;-1.56;100.00;99180.31;5075794;28;20192;-80
2023/11/09 05:10:57;;;;;;;3.23;2.47;;;;;;;-1.60;100.00;99181.59;5074608;28;20205;-81
2023/11/09 05:13:25;;;;;;;3.30;2.47;;;;;;;-1.61;100.00;99185.19;5083403;28;20204;-82
2023/11/09 05:15:55;;;;;;;3.63;2.50;;;;;;;-1.63;100.00;99176.66;5086197;28;20299;-81
2023/11/09 05:18:25;;;;;;;5.50;2.20;;;;;;;-1.67;100.00;99170.88;5082330;28;20197;-80
2023/11/09 05:20:58;;;;;;;3.33;2.13;;;;;;;-1.68;100.00;99160.53;5078916;28;20209;-80
2023/11/09 05:23:27;;;;;;;2.67;2.00;;;;;;;-1.74;100.00;99167.22;5080918;28;20212;-80
2023/11/09 05:25:55;;;;;;;2.00;1.80;;;;;;;-1.75;100.00;99175.25;5082924;28;20674;-80
2023/11/09 05:28:24;;;;;;;2.77;2.17;;;;;;;-1.80;100.00;99163.41;5086189;28;20279;-83
2023/11/09 05:30:54;;;;;;;3.13;2.40;;;;;;;-1.75;100.00;99167.38;5084105;28;20680;-81
2023/11/09 05:33:25;;;;;;;4.47;2.60;;;;;;;-1.77;100.00;99165.72;5079574;28;20212;-81
2023/11/09 05:35:53;;;;;;;2.67;2.10;;;;;;;-1.80;100.00;99170.44;5079727;28;20196;-80
2023/11/09 05:38:34;;;;;;;2.77;2.40;;;;;;;-1.80;100.00;99173.91;5083254;28;20232;-83
2023/11/09 05:41:03;;;;;;;3.23;2.30;;;;;;;-1.87;100.00;99175.47;5081860;28;20300;-80
2023/11/09 05:43:36;;;;;;;3.83;2.30;;;;;;;-1.87;100.00;99172.84;5078056;28;20224;-80
2023/11/09 05:46:04;;;;;;;3.20;2.20;;;;;;;-1.88;100.00;99165.97;5083411;28;20193;-81
2023/11/09 05:48:34;;;;;;;2.97;2.30;;;;;;;-1.90;100.00;99167.91;5082816;28;20208;-80
2023/11/09 05:51:03;;;;;;;2.77;2.10;;;;;;;-1.82;100.00;99167.16;5088929;28;20200;-81
2023/11/09 05:53:31;;;;;;;4.20;2.50;;;;;;;-1.84;100.00;99159.44;5077250;28;20279;-80
2023/11/09 05:55:59;;;;;;;2.63;2.00;;;;;;;-1.80;100.00;99159.94;5076278;28;20655;-81
2023/11/09 05:58:30;;;;;;;3.70;2.43;;;;;;;-1.80;100.00;99162.56;5088685;28;20224;-80
2023/11/09 06:01:00;;;;;;;3.53;2.27;;;;;;;-1.75;100.00;99160.31;5081313;28;20682;-83
2023/11/09 06:03:32;;;;;;;3.60;2.20;;;;;;;-1.70;100.00;99165.09;5076054;28;20245;-81
2023/11/09 06:06:01;;;;;;;2.87;2.43;;;;;;;-1.70;100.00;99163.31;5080301;28;20254;-82
2023/11/09 06:08:42;;;;;;;3.87;2.93;;;;;;;-1.68;100.00;99158.72;5074853;28;20612;-82
2023/11/09 06:11:13;;;;;;;4.37;2.60;;;;;;;-1.69;100.00;99153.63;5074136;28;20207;-82
2023/11/09 06:13:58;;;;;;;5.23;2.40;;;;;;;-1.63;100.00;99166.16;5085920;28;20194;-81
2023/11/09 06:16:34;;;;;;;3.33;2.43;;;;;;;-1.59;100.00;99157.00;5068754;28;20649;-85
2023/11/09 06:19:04;;;;;;;7.33;2.40;;;;;;;-1.54;100.00;99173.13;5086119;28;20219;-84
2023/11/09 06:21:32;;;;;;;4.80;2.40;;;;;;;-1.43;100.00;99167.59;5076455;28;20197;-84
2023/11/09 06:24:02;;;;;;;3.40;2.50;;;;;;;-1.35;100.00;99172.88;5066766;28;20216;-81
2023/11/09 06:26:32;;;;;;;3.80;2.27;;;;;;;-1.26;100.00;99160.66;5058742;28;20205;-83
2023/11/09 06:29:00;;;;;;;2.60;2.40;;;;;;;-1.17;100.00;99154.44;5063791;28;20682;-83
2023/11/09 06:31:27;;;;;;;3.40;2.53;;;;;;;-1.07;100.00;99155.13;5079046;28;20736;-84
2023/11/09 06:33:55;;;;;;;2.80;2.30;;;;;;;-0.95;100.00;99157.34;5067133;28;20200;-82
2023/11/09 06:36:25;;;;;;;4.77;2.57;;;;;;;-0.82;100.00;99148.19;5076935;28;20285;-83
2023/11/09 06:38:59;;;;;;;5.17;3.30;;;;;;;-0.72;100.00;99143.63;5071030;28;20195;-88
2023/11/09 06:41:32;;;;;;;7.50;4.73;;;;;;;-0.63;100.00;99142.66;5076405;28;20225;-84
2023/11/09 06:44:04;;;;;;;8.43;5.07;;;;;;;-0.52;100.00;99147.63;5073579;28;20212;-83
2023/11/09 06:46:37;;;;;;;6.43;4.50;;;;;;;-0.42;100.00;99143.03;5079466;28;20196;-84
2023/11/09 06:49:11;;;;;;;6.23;4.17;;;;;;;-0.29;100.00;99147.84;5077543;28;20294;-81
2023/11/09 06:51:46;;;;;;;8.13;5.80;;;;;;;-0.17;100.00;99157.06;5072385;28;20226;-83
2023/11/09 06:54:15;;;;;;;8.33;5.63;;;;;;;-0.07;100.00;99148.03;5068046;28;20227;-83
2023/11/09 06:56:44;;;;;;;8.07;5.70;;;;;;;0.07;100.00;99149.19;5083981;28;20759;-85
2023/11/09 06:59:17;;;;;;;9.03;6.07;;;;;;;0.19;100.00;99142.59;5071936;28;20701;-83
2023/11/09 07:01:51;;;;;;;7.87;5.70;;;;;;;0.29;100.00;99143.25;5076261;28;20194;-85
2023/11/09 07:04:18;;;;;;;7.10;5.33;;;;;;;0.42;100.00;99140.91;5078066;28;20212;-82
2023/11/09 07:06:54;;;;;;;5.53;4.27;;;;;;;0.55;100.00;99145.69;5079086;28;20201;-82
2023/11/09 07:09:23;;;;;;;5.00;4.10;;;;;;;0.69;100.00;99136.28;5079013;28;20276;-82
2023/11/09 07:11:53;;;;;;;5.93;4.40;;;;;;;0.79;100.00;99135.06;5087802;28;20564;-84
2023/11/09 07:14:23;;;;;;;5.90;4.27;;;;;;;0.91;100.00;99129.44;5072035;28;20200;-82
2023/11/09 07:16:56;;;;;;;5.37;3.60;;;;;;;1.01;100.00;99135.34;5084902;28;20202;-85
2023/11/09 07:19:25;;;;;;;6.53;3.87;;;;;;;1.11;100.00;99133.34;5079809;28;20188;-83
2023/11/09 07:21:57;;;;;;;7.23;3.80;;;;;;;1.24;100.00;99128.31;5076078;28;20286;-81
2023/11/09 07:24:35;;;;;;;4.73;4.03;;;;;;;1.37;100.00;99128.59;5080847;28;20217;-84
2023/11/09 07:27:11;;;;;;;5.23;4.17;;;;;;;1.50;100.00;99120.91;5086550;28;20210;-84
2023/11/09 07:29:42;;;;;;;4.90;3.97;;;;;;;1.65;100.00;99132.38;5084369;28;20269;-83
2023/11/09 07:32:10;;;;;;;5.40;3.63;;;;;;;1.83;100.00;99126.81;5061974;28;20197;-84
2023/11/09 07:34:38;;;;;;;5.77;4.03;;;;;;;1.99;100.00;99121.44;5082181;28;20223;-83
2023/11/09 07:37:11;;;;;;;5.13;4.03;;;;;;;2.19;100.00;99119.13;5081327;28;20219;-85
2023/11/09 07:39:40;;;;;;;5.63;4.20;;;;;;;2.36;100.00;99112.69;5084148;28;20199;-84
2023/11/09 07:42:08;;;;;;;5.30;3.90;;;;;;;2.51;100.00;99110.06;5069601;28;20233;-84
2023/11/09 07:44:35;;;;;;;5.57;4.13;;;;;;;2.64;100.00;99099.66;5073121;28;20248;-82
2023/11/09 07:47:13;;;;;;;6.60;4.13;;;;;;;2.80;100.00;99101.31;5072656;28;20197;-83
2023/11/09 07:49:41;;;;;;;6.10;3.93;;;;;;;2.92;100.00;99108.63;5087862;28;20223;-83
2023/11/09 07:52:10;;;;;;;5.20;4.13;;;;;;;3.05;100.00;99100.84;5083960;28;20681;-82
2023/11/09 07:54:39;;;;;;;4.57;3.73;;;;;;;3.16;100.00;99091.63;5084886;28;20616;-84
2023/11/09 07:57:12;;;;;;;5.50;4.20;;;;;;;3.29;100.00;99090.94;5087293;28;20212;-85
2023/11/09 07:59:45;;;;;;;6.50;5.73;;;;;;;3.35;100.00;99096.34;5083623;28;20208;-87
2023/11/09 08:02:13;;;;;;;6.60;5.50;;;;;;;3.43;100.00;99101.50;5061255;28;20197;-85
2023/11/09 08:04:46;;;;;;;8.07;4.87;;;;;;;3.48;100.00;99093.81;5084066;28;20283;-82
2023/11/09 08:07:14;;;;;;;5.03;4.50;;;;;;;3.57;100.00;99085.75;5072414;28;20232;-81
2023/11/09 08:09:44;;;;;;;5.47;4.97;;;;;;;3.60;100.00;99091.50;5079033;28;20268;-84
2023/11/09 08:12:18;;;;;;;5.60;4.83;;;;;;;3.63;100.00;99092.97;5080998;28;20193;-82
2023/11/09 08:14:49;;;;;;;6.73;4.60;;;;;;;3.68;100.00;99087.91;5073366;28;20189;-83
2023/11/09 08:17:17;;;;;;;6.63;4.67;;;;;;;3.73;100.00;99082.88;5083364;28;20211;-81
2023/11/09 08:19:58;;;;;;;25.17;18.77;;;;;;;3.83;100.00;99086.00;5078359;28;20183;-81
2023/11/09 08:22:26;;;;;;;8.43;5.40;;;;;;;3.94;100.00;99075.72;5076949;28;20206;-83
2023/11/09 08:25:14;;;;;;;5.97;5.00;;;;;;;4.06;100.00;99072.56;5078785;28;20721;-84
2023/11/09 08:27:44;;;;;;;5.13;4.63;;;;;;;4.17;100.00;99069.38;5082518;28;20196;-84
2023/11/09 08:30:15;;;;;;;6.07;4.50;;;;;;;4.22;100.00;99065.16;5076587;28;20193;-82
2023/11/09 08:32:46;;;;;;;5.80;5.13;;;;;;;4.34;100.00;99062.78;5089089;28;20218;-83
2023/11/09 08:35:18;;;;;;;7.50;4.87;;;;;;;4.53;100.00;99063.91;5077704;28;20195;-85
2023/11/09 08:37:52;;;;;;;5.40;4.87;;;;;;;4.63;100.00;99059.91;5078006;28;20275;-83
2023/11/09 08:40:27;;;;;;;6.47;5.17;;;;;;;4.81;100.00;99067.34;5071672;28;20719;-81
2023/11/09 08:42:59;;;;;;;6.00;4.90;;;;;;;5.00;100.00;99048.06;5081109;28;20203;-83
2023/11/09 08:45:29;;;;;;;5.80;4.73;;;;;;;5.12;100.00;99035.03;5072040;28;20196;-82
2023/11/09 08:47:58;;;;;;;5.73;5.23;;;;;;;5.23;100.00;99035.28;5071830;28;20211;-83
2023/11/09 08:50:29;;;;;;;9.00;5.27;;;;;;;5.35;100.00;99035.53;5080269;28;20196;-81
2023/11/09 08:52:58;;;;;;;7.63;4.90;;;;;;;5.57;100.00;99036.19;5080371;28;20192;-82
2023/11/09 08:55:29;;;;;;;5.47;4.90;;;;;;;5.75;100.00;99042.53;5079138;28;20192;-81
2023/11/09 08:57:59;;;;;;;6.80;5.50;;;;;;;5.93;100.00;99036.66;5075080;28;20208;-81
2023/11/09 09:00:30;;;;;;;6.20;5.60;;;;;;;6.14;100.00;99033.81;5075668;28;20221;-80
2023/11/09 09:03:16;;;;;;;7.90;5.07;;;;;;;6.34;100.00;99036.44;5076276;28;20296;-82
2023/11/09 09:05:47;;;;;;;5.97;5.20;;;;;;;6.55;100.00;99030.88;5068880;28;20202;-80
2023/11/09 09:08:17;;;;;;;4.90;4.50;;;;;;;6.65;100.00;99025.13;5083240;28;20204;-82
2023/11/09 09:10:56;;;;;;;4.70;4.20;;;;;;;6.89;100.00;99010.31;5077376;28;20196;-81
2023/11/09 09:13:26;;;;;;;6.30;4.23;;;;;;;7.05;100.00;99004.47;5072268;28;20197;-80
2023/11/09 09:15:55;;;;;;;4.97;3.47;;;;;;;7.23;100.00;99006.47;5080384;28;20197;-81
2023/11/09 09:18:24;;;;;;;4.17;3.47;;;;;;;7.44;100.00;99009.63;5065293;28;20683;-81
2023/11/09 09:20:51;;;;;;;3.67;3.23;;;;;;;7.60;100.00;99010.16;5074422;28;20197;-80
2023/11/09 09:23:22;;;;;;;4.63;3.70;;;;;;;7.77;100.00;99003.25;5057169;28;20224;-80
2023/11/09 09:25:52;;;;;;;4.30;3.90;;;;;;;7.83;100.00;99013.06;5070896;28;20209;-80
2023/11/09 09:28:24;;;;;;;8.33;3.63;;;;;;;7.97;100.00;99003.91;5069552;28;20646;-81
2023/11/09 09:30:53;;;;;;;4.13;3.70;;;;;;;8.06;100.00;99002.59;5077032;28;20208;-80
2023/11/09 09:33:27;;;;;;;3.80;3.50;;;;;;;8.17;100.00;99007.22;5071484;28;20197;-81
2023/11/09 09:35:57;;;;;;;3.90;3.50;;;;;;;8.27;100.00;99001.38;5071545;28;20243;-79
2023/11/09 09:38:27;;;;;;;4.40;3.87;;;;;;;8.34;100.00;98994.16;5075688;28;20225;-79
2023/11/09 09:41:04;;;;;;;4.13;3.73;;;;;;;8.45;100.00;98984.59;5073967;28;20242;-79
2023/11/09 09:43:38;;;;;;;4.00;3.53;;;;;;;8.51;100.00;98992.53;5073344;28;20217;-79
2023/11/09 09:46:11;;;;;;;4.63;3.60;;;;;;;8.58;100.00;98992.50;5071109;28;20196;-80
2023/11/09 09:48:40;;;;;;;4.33;3.27;;;;;;;8.68;100.00;98972.22;5069132;28;20712;-79
2023/11/09 09:51:13;;;;;;;3.90;3.53;;;;;;;8.79;100.00;98970.66;5069941;28;20199;-79
2023/11/09 09:53:40;;;;;;;3.90;3.57;;;;;;;8.82;100.00;98965.69;5062223;28;20688;-79
2023/11/09 09:56:09;;;;;;;4.53;3.20;;;;;;;8.97;100.00;98973.31;5079083;28;20220;-79
2023/11/09 09:58:39;;;;;;;4.57;2.97;;;;;;;9.11;100.00;98964.09;5081817;28;20195;-78
2023/11/09 10:01:07;;;;;;;3.30;3.00;;;;;;;9.27;100.00;98952.78;5061763;28;20224;-78
2023/11/09 10:03:35;;;;;;;3.77;3.10;;;;;;;9.51;100.00;98960.88;5073084;28;20208;-79
2023/11/09 10:06:06;;;;;;;3.40;3.10;;;;;;;9.67;100.00;98954.84;5057314;28;20208;-78
2023/11/09 10:08:38;;;;;;;2.97;2.47;;;;;;;9.87;100.00;98955.34;5065277;28;20214;-78
2023/11/09 10:11:15;;;;;;;2.87;2.50;;;;;;;10.04;100.00;98953.59;5073241;28;20242;-79
2023/11/09 10:13:46;;;;;;;4.50;2.60;;;;;;;10.15;100.00;98947.47;5081045;28;20200;-80
2023/11/09 10:16:19;;;;;;;3.43;2.47;;;;;;;10.33;100.00;98951.06;5067953;28;20620;-80
2023/11/09 10:18:48;;;;;;;4.77;2.33;;;;;;;10.38;100.00;98943.16;5081282;28;20227;-79
2023/11/09 10:21:19;;;;;;;3.63;2.13;;;;;;;10.47;100.00;98934.50;5081075;28;20658;-80
2023/11/09 10:23:54;;;;;;;2.30;2.10;;;;;;;10.63;100.00;98924.94;5081696;28;20299;-79
2023/11/09 10:26:35;;;;;;;2.43;2.07;;;;;;;10.75;100.00;98922.22;5083814;28;20201;-80
2023/11/09 10:29:03;;;;;;;4.20;2.53;;;;;;;10.84;100.00;98918.13;5077750;28;20208;-81
2023/11/09 10:31:31;;;;;;;2.83;2.40;;;;;;;10.88;100.00;98913.91;5087182;28;20200;-80
2023/11/09 10:34:00;;;;;;;3.33;2.50;;;;;;;10.94;100.00;98911.09;5084065;28;20215;-79
2023/11/09 10:36:29;;;;;;;2.50;2.30;;;;;;;11.06;100.00;98910.25;5083135;28;20203;-79
2023/11/09 10:38:58;;;;;;;2.60;2.40;;;;;;;11.17;100.00;98912.84;5074672;28;20209;-79
2023/11/09 10:41:32;;;;;;;5.10;3.23;;;;;;;11.28;100.00;98906.63;5079129;28;20236;-80
2023/11/09 10:44:24;;;;;;;3.70;2.60;;;;;;;11.44;100.00;98907.69;5056895;28;20274;-82
2023/11/09 10:47:03;;;;;;;4.90;3.00;;;;;;;11.56;100.00;98894.22;5074003;28;20204;-79
2023/11/09 10:49:43;;;;;;;2.30;2.10;;;;;;;11.69;100.00;98894.69;5068664;28;20239;-80
2023/11/09 10:52:14;;;;;;;3.43;3.13;;;;;;;11.75;100.00;98880.34;5079731;28;20201;-80
2023/11/09 10:54:51;;;;;;;3.00;2.70;;;;;;;11.85;100.00;98872.44;5080309;28;20200;-79
2023/11/09 10:57:20;;;;;;;3.60;3.30;;;;;;;11.83;100.00;98871.06;5079629;28;20196;-79
2023/11/09 11:00:01;;;;;;;3.57;3.10;;;;;;;11.89;100.00;98865.53;5081634;28;20218;-80
2023/11/09 11:02:37;;;;;;;4.07;3.67;;;;;;;11.95;100.00;98868.25;5077978;28;20196;-79
2023/11/09 11:05:08;;;;;;;5.17;3.43;;;;;;;11.89;100.00;98870.91;5071847;28;20259;-79
2023/11/09 11:07:37;;;;;;;3.90;3.40;;;;;;;11.90;100.00;98861.75;5082457;28;20218;-79
2023/11/09 11:10:16;;;;;;;3.53;2.83;;;;;;;11.80;100.00;98858.13;5063208;28;20255;-79
2023/11/09 11:12:47;;;;;;;3.50;3.20;;;;;;;11.75;100.00;98844.66;5081849;28;20201;-80
2023/11/09 11:15:27;;;;;;;3.83;3.10;;;;;;;11.84;100.00;98846.66;5073655;28;20220;-79
2023/11/09 11:18:07;;;;;;;3.20;2.90;;;;;;;11.82;100.00;98848.78;5069512;28;20610;-79
2023/11/09 11:21:00;;;;;;;3.63;3.23;;;;;;;11.90;100.00;98844.84;5082491;28;20653;-81
2023/11/09 11:23:35;;;;;;;4.50;3.17;;;;;;;11.75;100.00;98834.72;5077287;28;20186;-80
2023/11/09 11:26:10;;;;;;;5.33;3.33;;;;;;;11.76;100.00;98832.84;5073214;28;20200;-81
2023/11/09 11:28:40;;;;;;;3.50;3.20;;;;;;;11.72;100.00;98824.47;5061042;28;20342;-78
2023/11/09 11:31:08;;;;;;;3.70;3.40;;;;;;;11.71;100.00;98822.81;5096982;28;20742;-80
2023/11/09 11:33:40;;;;;;;3.47;3.17;;;;;;;11.65;100.00;98821.13;5088640;28;20282;-80
2023/11/09 11:36:24;;;;;;;4.57;3.80;;;;;;;11.64;100.00;98816.81;5072439;28;20303;-80
2023/11/09 11:39:09;;;;;;;4.07;3.60;;;;;;;11.61;100.00;98814.63;5057507;28;20368;-81
2023/11/09 11:41:39;;;;;;;3.70;3.40;;;;;;;11.75;100.00;98817.81;5091761;28;20231;-80
2023/11/09 11:44:08;;;;;;;3.60;3.30;;;;;;;11.85;100.00;98813.38;5083581;28;20236;-81
2023/11/09 11:46:40;;;;;;;3.90;2.90;;;;;;;11.91;100.00;98801.66;5064330;28;20189;-80
2023/11/09 11:49:16;;;;;;;3.37;2.90;;;;;;;12.09;100.00;98797.03;5070866;28;20229;-79
2023/11/09 11:51:51;;;;;;;3.77;2.90;;;;;;;12.00;100.00;98796.66;5083103;28;20284;-80
2023/11/09 11:54:21;;;;;;;3.20;2.80;;;;;;;12.09;100.00;98807.78;5085100;28;20206;-80
2023/11/09 11:56:56;;;;;;;4.43;2.90;;;;;;;12.12;100.00;98800.06;5072790;28;20672;-80
2023/11/09 11:59:29;;;;;;;3.30;2.90;;;;;;;12.17;100.00;98797.44;5088870;28;20199;-79